createdAt,value
2019-06-26T00:01:02.343Z,26.94
2019-06-26T00:03:31.863Z,26.86
2019-06-26T00:06:01.147Z,26.78
2019-06-26T00:08:30.373Z,26.73
2019-06-26T00:10:59.761Z,26.74
2019-06-26T00:13:28.959Z,26.73
2019-06-26T00:15:58.511Z,26.74
2019-06-26T00:18:27.711Z,26.76
2019-06-26T00:20:56.952Z,26.75
2019-06-26T00:23:26.159Z,26.68
2019-06-26T00:25:55.415Z,26.63
2019-06-26T00:28:24.609Z,26.62
2019-06-26T00:30:53.856Z,26.52
2019-06-26T00:33:23.050Z,26.41
2019-06-26T00:35:52.444Z,26.37
2019-06-26T00:38:21.626Z,26.27
2019-06-26T00:40:50.890Z,26.26
2019-06-26T00:43:20.133Z,26.16
2019-06-26T00:45:49.328Z,26.12
2019-06-26T00:48:18.574Z,26.09
2019-06-26T00:50:47.774Z,26.03
2019-06-26T00:53:17.034Z,26.01
2019-06-26T00:55:46.215Z,25.97
2019-06-26T00:58:15.467Z,26.03
2019-06-26T01:00:48.370Z,26.07
2019-06-26T01:03:17.677Z,26.03
2019-06-26T01:05:46.864Z,26.03
2019-06-26T01:08:16.113Z,26.01
2019-06-26T01:10:45.419Z,25.95
2019-06-26T01:13:14.680Z,25.98
2019-06-26T01:15:43.965Z,25.98
2019-06-26T01:18:13.498Z,25.89
2019-06-26T01:20:42.748Z,25.86
2019-06-26T01:23:12.013Z,25.83
2019-06-26T01:25:41.257Z,25.84
2019-06-26T01:28:10.834Z,25.82
2019-06-26T01:30:40.060Z,25.73
2019-06-26T01:33:09.354Z,25.67
2019-06-26T01:35:38.518Z,25.63
2019-06-26T01:38:08.163Z,25.60
2019-06-26T01:40:37.358Z,25.65
2019-06-26T01:43:06.609Z,25.60
2019-06-26T01:45:35.860Z,25.62
2019-06-26T01:48:05.459Z,25.65
2019-06-26T01:50:34.685Z,25.59
2019-06-26T01:53:03.895Z,25.52
2019-06-26T01:55:33.155Z,25.48
2019-06-26T01:58:02.757Z,25.44
2019-06-26T02:00:32.139Z,25.38
2019-06-26T02:03:01.298Z,25.28
2019-06-26T02:05:30.539Z,25.24
2019-06-26T02:07:59.735Z,25.17
2019-06-26T02:10:28.983Z,25.09
2019-06-26T02:12:58.553Z,25.06
2019-06-26T02:15:27.797Z,25.00
2019-06-26T02:17:56.998Z,24.93
2019-06-26T02:20:26.201Z,24.91
2019-06-26T02:22:55.446Z,24.85
2019-06-26T02:25:24.692Z,24.85
2019-06-26T02:27:54.082Z,24.76
2019-06-26T02:30:23.735Z,24.74
2019-06-26T02:32:53.012Z,24.70
2019-06-26T02:35:22.187Z,24.73
2019-06-26T02:37:51.459Z,24.78
2019-06-26T02:40:21.037Z,24.76
2019-06-26T02:42:50.290Z,24.73
2019-06-26T02:45:19.533Z,24.70
2019-06-26T02:47:49.004Z,24.64
2019-06-26T02:50:18.266Z,24.65
2019-06-26T02:52:47.449Z,24.73
2019-06-26T02:55:16.695Z,24.69
2019-06-26T02:57:45.888Z,24.64
2019-06-26T03:00:15.256Z,24.59
2019-06-26T03:02:44.444Z,24.61
2019-06-26T03:05:14.022Z,24.58
2019-06-26T03:07:43.277Z,24.61
2019-06-26T03:10:13.106Z,24.63
2019-06-26T03:12:42.366Z,24.61
2019-06-26T03:15:11.669Z,24.62
2019-06-26T03:17:54.274Z,24.54
2019-06-26T03:20:11.948Z,24.56
2019-06-26T03:22:41.212Z,24.53
2019-06-26T03:25:10.789Z,24.54
2019-06-26T03:27:40.041Z,24.54
2019-06-26T03:30:10.140Z,24.44
2019-06-26T03:32:39.389Z,24.44
2019-06-26T03:35:09.334Z,24.42
2019-06-26T03:37:38.631Z,24.44
2019-06-26T03:40:09.232Z,24.44
2019-06-26T03:42:38.477Z,24.47
2019-06-26T03:45:24.102Z,24.49
2019-06-26T03:47:39.499Z,24.46
2019-06-26T03:50:09.552Z,24.43
2019-06-26T03:52:38.753Z,24.39
2019-06-26T03:55:08.193Z,24.41
2019-06-26T03:57:37.739Z,24.40
2019-06-26T04:00:08.969Z,24.35
2019-06-26T04:02:38.158Z,24.32
2019-06-26T04:05:07.610Z,24.37
2019-06-26T04:07:36.837Z,24.35
2019-06-26T04:10:06.941Z,24.36
2019-06-26T04:12:36.121Z,24.37
2019-06-26T04:15:05.854Z,24.38
2019-06-26T04:17:35.092Z,24.37
2019-06-26T04:20:05.207Z,24.40
2019-06-26T04:22:34.472Z,24.44
2019-06-26T04:25:03.693Z,24.45
2019-06-26T04:27:32.958Z,24.47
2019-06-26T04:30:02.191Z,24.47
2019-06-26T04:32:31.381Z,24.44
2019-06-26T04:35:00.750Z,24.37
2019-06-26T04:37:29.935Z,24.28
2019-06-26T04:39:59.177Z,24.28
2019-06-26T04:42:28.348Z,24.28
2019-06-26T04:44:57.636Z,24.32
2019-06-26T04:47:26.829Z,24.37
2019-06-26T04:49:56.031Z,24.29
2019-06-26T04:52:25.295Z,24.33
2019-06-26T04:54:54.481Z,24.35
2019-06-26T04:57:23.723Z,24.38
2019-06-26T04:59:52.923Z,24.43
2019-06-26T05:02:22.160Z,24.51
2019-06-26T05:04:51.361Z,24.55
2019-06-26T05:07:20.918Z,24.56
2019-06-26T05:09:50.119Z,24.62
2019-06-26T05:12:19.828Z,24.75
2019-06-26T05:14:49.015Z,24.65
2019-06-26T05:17:18.260Z,24.64
2019-06-26T05:19:47.449Z,24.62
2019-06-26T05:22:16.677Z,24.62
2019-06-26T05:24:46.619Z,24.61
2019-06-26T05:27:16.196Z,24.64
2019-06-26T05:29:45.403Z,24.65
2019-06-26T05:32:14.667Z,24.73
2019-06-26T05:34:43.860Z,24.84
2019-06-26T05:37:13.319Z,24.90
2019-06-26T05:39:42.567Z,24.98
2019-06-26T05:42:11.767Z,25.03
2019-06-26T05:44:41.083Z,25.11
2019-06-26T05:47:10.283Z,25.18
2019-06-26T05:49:40.248Z,25.22
2019-06-26T05:52:09.954Z,25.26
2019-06-26T05:54:39.224Z,25.32
2019-06-26T05:57:08.438Z,25.38
2019-06-26T05:59:37.705Z,25.45
2019-06-26T06:02:07.736Z,25.52
2019-06-26T06:04:37.299Z,25.61
2019-06-26T06:07:06.498Z,25.70
2019-06-26T06:09:35.793Z,25.75
2019-06-26T06:12:05.099Z,25.84
2019-06-26T06:14:34.334Z,25.96
2019-06-26T06:17:03.860Z,26.03
2019-06-26T06:19:33.138Z,26.11
2019-06-26T06:22:02.383Z,26.12
2019-06-26T06:24:31.972Z,26.17
2019-06-26T06:27:01.499Z,26.27
2019-06-26T06:29:30.950Z,26.37
2019-06-26T06:32:00.302Z,26.37
2019-06-26T06:34:29.503Z,26.41
2019-06-26T06:36:58.749Z,26.43
2019-06-26T06:39:27.942Z,26.50
2019-06-26T06:41:57.473Z,26.72
2019-06-26T06:44:26.674Z,26.87
2019-06-26T06:47:03.946Z,26.84
2019-06-26T06:49:27.172Z,26.83
2019-06-26T06:51:56.434Z,26.80
2019-06-26T06:54:25.681Z,26.85
2019-06-26T06:56:55.223Z,26.88
2019-06-26T06:59:25.329Z,26.93
2019-06-26T07:01:54.867Z,27.01
2019-06-26T07:04:24.453Z,27.04
2019-06-26T07:06:53.962Z,27.08
2019-06-26T07:09:23.225Z,27.12
2019-06-26T07:11:52.443Z,27.25
2019-06-26T07:14:21.654Z,27.28
2019-06-26T07:16:50.907Z,27.36
2019-06-26T07:19:20.465Z,27.54
2019-06-26T07:21:49.704Z,27.59
2019-06-26T07:24:18.966Z,27.60
2019-06-26T07:26:48.562Z,27.70
2019-06-26T07:29:17.771Z,27.83
2019-06-26T07:34:21.691Z,27.93
2019-06-26T07:36:50.958Z,27.94
2019-06-26T07:39:20.176Z,28.01
2019-06-26T07:41:49.434Z,28.10
2019-06-26T07:44:18.697Z,28.08
2019-06-26T07:46:48.034Z,28.10
2019-06-26T07:49:17.223Z,28.32
2019-06-26T07:54:20.915Z,28.46
2019-06-26T07:56:50.183Z,28.53
2019-06-26T07:59:19.419Z,28.54
2019-06-26T08:01:48.704Z,28.51
2019-06-26T08:04:18.033Z,28.50
2019-06-26T08:06:47.394Z,28.53
2019-06-26T08:09:17.078Z,28.54
2019-06-26T08:11:46.454Z,28.58
2019-06-26T08:14:15.668Z,28.65
2019-06-26T08:16:44.910Z,28.76
2019-06-26T08:19:14.385Z,29.01
2019-06-26T08:21:46.621Z,29.21
2019-06-26T08:24:14.585Z,29.15
2019-06-26T08:26:43.855Z,29.08
2019-06-26T08:29:13.538Z,29.04
2019-06-26T08:31:42.741Z,29.07
2019-06-26T08:34:12.001Z,29.11
2019-06-26T08:36:41.199Z,29.15
2019-06-26T08:39:10.448Z,29.23
2019-06-26T08:41:39.986Z,29.36
2019-06-26T08:44:09.583Z,29.35
2019-06-26T08:46:38.812Z,29.39
2019-06-26T08:49:24.451Z,29.68
2019-06-26T08:51:38.989Z,29.81
2019-06-26T08:54:08.841Z,29.69
2019-06-26T08:56:38.062Z,29.68
2019-06-26T08:59:07.641Z,29.66
2019-06-26T09:01:37.130Z,29.72
2019-06-26T09:04:06.388Z,29.81
2019-06-26T09:06:35.581Z,29.76
2019-06-26T09:09:07.603Z,29.81
2019-06-26T09:11:36.849Z,29.83
2019-06-26T09:14:06.286Z,29.89
2019-06-26T09:16:35.480Z,29.95
2019-06-26T09:19:04.838Z,29.96
2019-06-26T09:21:34.030Z,30.20
2019-06-26T09:24:03.597Z,30.32
2019-06-26T09:26:32.853Z,30.23
2019-06-26T09:29:02.045Z,30.22
2019-06-26T09:31:31.283Z,30.25
2019-06-26T09:34:00.845Z,30.26
2019-06-26T09:36:30.085Z,30.29
2019-06-26T09:38:59.285Z,30.29
2019-06-26T09:41:28.535Z,30.32
2019-06-26T09:43:57.744Z,30.32
2019-06-26T09:46:27.034Z,30.45
2019-06-26T09:48:56.236Z,30.46
2019-06-26T09:51:25.481Z,30.46
2019-06-26T09:53:54.692Z,30.46
2019-06-26T09:56:23.944Z,30.48
2019-06-26T09:58:53.142Z,30.52
2019-06-26T10:01:22.671Z,30.55
2019-06-26T10:03:51.864Z,30.58
2019-06-26T10:06:21.097Z,30.57
2019-06-26T10:08:53.956Z,30.60
2019-06-26T10:11:21.299Z,30.63
2019-06-26T10:13:50.465Z,30.70
2019-06-26T10:16:19.673Z,30.76
2019-06-26T10:18:48.901Z,30.77
2019-06-26T10:21:18.225Z,30.80
2019-06-26T10:23:47.469Z,31.02
2019-06-26T10:26:16.663Z,31.44
2019-06-26T10:28:45.934Z,31.34
2019-06-26T10:31:18.397Z,31.19
2019-06-26T10:33:46.111Z,31.09
2019-06-26T10:36:15.295Z,31.08
2019-06-26T10:38:44.564Z,31.08
2019-06-26T10:41:14.089Z,31.07
2019-06-26T10:43:43.472Z,31.08
2019-06-26T10:46:13.105Z,31.10
2019-06-26T10:48:42.370Z,31.15
2019-06-26T10:51:11.603Z,31.11
2019-06-26T10:53:40.890Z,31.10
2019-06-26T10:56:10.081Z,31.12
2019-06-26T10:58:39.396Z,31.17
2019-06-26T11:01:08.590Z,31.25
2019-06-26T11:03:38.636Z,31.28
2019-06-26T11:06:07.841Z,31.31
2019-06-26T11:08:37.079Z,31.34
2019-06-26T11:11:06.623Z,31.35
2019-06-26T11:13:35.898Z,31.34
2019-06-26T11:16:05.159Z,31.32
2019-06-26T11:18:34.533Z,31.33
2019-06-26T11:21:03.852Z,31.34
2019-06-26T11:23:33.040Z,31.35
2019-06-26T11:26:02.292Z,31.34
2019-06-26T11:28:31.559Z,31.35
2019-06-26T11:31:00.761Z,31.38
2019-06-26T11:33:29.957Z,31.38
2019-06-26T11:35:59.200Z,31.46
2019-06-26T11:38:28.483Z,31.53
2019-06-26T11:41:01.600Z,31.50
2019-06-26T11:43:28.766Z,31.55
2019-06-26T11:45:58.101Z,31.65
2019-06-26T11:48:27.297Z,31.61
2019-06-26T11:50:56.547Z,31.59
2019-06-26T11:53:25.784Z,31.60
2019-06-26T11:55:54.979Z,31.57
2019-06-26T11:58:24.149Z,31.58
2019-06-26T12:00:53.837Z,31.62
2019-06-26T12:03:23.047Z,31.66
2019-06-26T12:05:52.583Z,31.70
2019-06-26T12:08:22.299Z,31.69
2019-06-26T12:10:51.495Z,31.66
2019-06-26T12:13:20.969Z,31.64
2019-06-26T12:15:50.157Z,31.64
2019-06-26T12:18:19.431Z,31.64
2019-06-26T12:20:48.632Z,31.64
2019-06-26T12:23:17.901Z,31.65
2019-06-26T12:25:47.099Z,31.66
2019-06-26T12:28:16.365Z,31.69
2019-06-26T12:30:45.825Z,31.72
2019-06-26T12:33:15.531Z,31.77
2019-06-26T12:35:44.732Z,31.78
2019-06-26T12:38:13.985Z,31.79
2019-06-26T12:40:43.180Z,31.79
2019-06-26T12:43:12.361Z,31.80
2019-06-26T12:45:41.607Z,31.85
2019-06-26T12:48:10.880Z,31.93
2019-06-26T12:50:40.113Z,31.97
2019-06-26T12:53:09.311Z,31.99
2019-06-26T12:55:38.890Z,32.00
2019-06-26T12:58:13.915Z,32.04
2019-06-26T13:00:39.057Z,32.09
2019-06-26T13:03:08.241Z,32.15
2019-06-26T13:05:37.492Z,32.17
2019-06-26T13:08:06.685Z,32.25
2019-06-26T13:10:48.978Z,32.32
2019-06-26T13:13:06.842Z,32.38
2019-06-26T13:15:36.089Z,32.39
2019-06-26T13:18:05.294Z,32.43
2019-06-26T13:20:48.246Z,32.44
2019-06-26T13:23:05.441Z,32.48
2019-06-26T13:25:34.648Z,32.70
2019-06-26T13:28:03.897Z,32.82
2019-06-26T13:30:37.753Z,33.01
2019-06-26T13:33:07.004Z,33.13
2019-06-26T13:35:36.207Z,33.19
2019-06-26T13:38:05.769Z,33.23
2019-06-26T13:40:34.975Z,33.24
2019-06-26T13:43:04.221Z,33.27
2019-06-26T13:45:33.855Z,33.31
2019-06-26T13:48:03.123Z,33.34
2019-06-26T13:50:32.308Z,33.42
2019-06-26T13:53:01.563Z,33.46
2019-06-26T13:55:30.741Z,33.53
2019-06-26T13:57:59.981Z,33.56
2019-06-26T14:00:29.180Z,33.49
2019-06-26T14:02:58.427Z,33.43
2019-06-26T14:05:29.560Z,33.42
2019-06-26T14:07:58.579Z,33.53
2019-06-26T14:10:27.814Z,33.65
2019-06-26T14:12:57.083Z,33.70
2019-06-26T14:15:26.375Z,33.77
2019-06-26T14:17:55.580Z,34.22
2019-06-26T14:20:25.102Z,34.21
2019-06-26T14:22:54.288Z,34.29
2019-06-26T14:25:23.767Z,34.37
2019-06-26T14:27:52.970Z,34.53
2019-06-26T14:30:22.295Z,34.59
2019-06-26T14:32:51.488Z,34.70
2019-06-26T14:35:21.036Z,34.73
2019-06-26T14:37:50.224Z,34.89
2019-06-26T14:40:19.582Z,35.06
2019-06-26T14:42:48.795Z,35.20
2019-06-26T14:45:18.323Z,35.30
2019-06-26T14:47:47.564Z,35.35
2019-06-26T14:50:16.973Z,35.39
2019-06-26T14:52:46.253Z,35.38
2019-06-26T14:55:15.798Z,35.50
2019-06-26T14:57:45.044Z,35.63
2019-06-26T15:00:15.941Z,35.72
2019-06-26T15:02:45.245Z,35.87
2019-06-26T15:05:14.872Z,36.01
2019-06-26T15:07:44.410Z,36.14
2019-06-26T15:10:14.080Z,36.23
2019-06-26T15:12:43.664Z,36.35
2019-06-26T15:15:13.386Z,36.45
2019-06-26T15:17:43.065Z,36.56
2019-06-26T15:20:12.775Z,36.70
2019-06-26T15:22:42.342Z,36.81
2019-06-26T15:25:11.741Z,36.91
2019-06-26T15:27:40.991Z,36.92
2019-06-26T15:30:10.801Z,37.07
2019-06-26T15:32:40.078Z,37.06
2019-06-26T15:35:09.796Z,37.18
2019-06-26T15:37:38.985Z,37.34
2019-06-26T15:40:08.973Z,37.46
2019-06-26T15:42:38.162Z,37.63
2019-06-26T15:45:07.896Z,37.71
2019-06-26T15:47:37.145Z,37.80
2019-06-26T15:50:10.494Z,37.80
2019-06-26T15:52:38.097Z,37.96
2019-06-26T15:55:07.959Z,38.08
2019-06-26T15:57:37.131Z,38.22
2019-06-26T16:00:07.082Z,38.32
2019-06-26T16:02:36.428Z,38.41
2019-06-26T16:05:06.277Z,38.52
2019-06-26T16:07:35.463Z,38.61
2019-06-26T16:10:05.120Z,38.64
2019-06-26T16:12:34.319Z,38.75
2019-06-26T16:15:03.578Z,38.81
2019-06-26T16:17:50.431Z,38.85
2019-06-26T16:20:19.681Z,38.98
2019-06-26T16:22:48.860Z,39.06
2019-06-26T16:25:18.204Z,39.11
2019-06-26T16:28:03.954Z,39.18
2019-06-26T16:30:18.846Z,39.20
2019-06-26T16:32:48.035Z,39.29
2019-06-26T16:35:17.665Z,39.17
2019-06-26T16:37:46.869Z,39.22
2019-06-26T16:40:16.064Z,39.25
2019-06-26T16:42:45.301Z,39.32
2019-06-26T16:45:14.994Z,39.32
2019-06-26T16:47:44.288Z,39.34
2019-06-26T16:50:14.174Z,39.43
2019-06-26T16:52:48.997Z,39.45
2019-06-26T16:55:14.569Z,39.46
2019-06-26T16:57:43.918Z,39.49
2019-06-26T17:00:13.121Z,39.46
2019-06-26T17:02:42.302Z,39.43
2019-06-26T17:05:12.996Z,39.45
2019-06-26T17:07:42.198Z,39.39
2019-06-26T17:10:11.635Z,39.36
2019-06-26T17:12:40.828Z,39.34
2019-06-26T17:15:11.724Z,39.28
2019-06-26T17:17:40.949Z,39.28
2019-06-26T17:20:10.905Z,39.19
2019-06-26T17:22:40.477Z,39.09
2019-06-26T17:25:09.825Z,38.94
2019-06-26T17:27:39.001Z,38.76
2019-06-26T17:30:09.012Z,38.61
2019-06-26T17:32:38.608Z,38.46
2019-06-26T17:35:08.983Z,38.28
2019-06-26T17:37:38.498Z,38.00
2019-06-26T17:40:08.154Z,37.77
2019-06-26T17:42:37.416Z,37.53
2019-06-26T17:45:06.911Z,37.30
2019-06-26T17:47:36.152Z,37.07
2019-06-26T17:50:06.252Z,36.84
2019-06-26T17:52:38.250Z,36.62
2019-06-26T17:55:07.220Z,36.41
2019-06-26T17:57:36.415Z,36.24
2019-06-26T18:00:07.295Z,36.07
2019-06-26T18:02:36.570Z,35.92
2019-06-26T18:05:07.046Z,35.78
2019-06-26T18:07:36.231Z,35.65
2019-06-26T18:10:06.158Z,35.53
2019-06-26T18:12:35.345Z,35.40
2019-06-26T18:15:05.077Z,35.31
2019-06-26T18:17:34.279Z,35.22
2019-06-26T18:20:03.488Z,35.12
2019-06-26T18:22:32.720Z,35.05
2019-06-26T18:25:01.969Z,34.96
2019-06-26T18:27:31.643Z,34.86
2019-06-26T18:30:01.806Z,34.76
2019-06-26T18:32:31.416Z,34.69
2019-06-26T18:35:00.600Z,34.59
2019-06-26T18:37:30.260Z,34.51
2019-06-26T18:39:59.440Z,34.45
2019-06-26T18:42:28.956Z,34.36
2019-06-26T18:44:58.135Z,34.28
2019-06-26T18:47:27.416Z,34.23
2019-06-26T18:49:56.633Z,34.14
2019-06-26T18:52:25.865Z,34.09
2019-06-26T18:54:55.053Z,34.01
2019-06-26T18:57:24.291Z,33.94
2019-06-26T18:59:53.833Z,33.88
2019-06-26T19:02:23.127Z,33.83
2019-06-26T19:04:54.228Z,33.79
2019-06-26T19:07:23.240Z,33.71
2019-06-26T19:09:52.644Z,33.66
2019-06-26T19:12:22.175Z,33.58
2019-06-26T19:14:51.409Z,33.53
2019-06-26T19:17:21.006Z,33.47
2019-06-26T19:19:50.253Z,33.43
2019-06-26T19:22:19.456Z,33.36
2019-06-26T19:24:48.788Z,33.31
2019-06-26T19:27:18.028Z,33.27
2019-06-26T19:29:47.236Z,33.20
2019-06-26T19:32:16.423Z,33.15
2019-06-26T19:34:45.660Z,33.11
2019-06-26T19:37:15.173Z,33.05
2019-06-26T19:39:44.414Z,33.01
2019-06-26T19:42:13.728Z,32.93
2019-06-26T19:44:43.300Z,32.87
2019-06-26T19:47:12.511Z,32.80
2019-06-26T19:49:41.790Z,32.74
2019-06-26T19:52:11.409Z,32.65
2019-06-26T19:54:40.729Z,32.59
2019-06-26T19:57:09.996Z,32.52
2019-06-26T19:59:39.228Z,32.47
2019-06-26T20:02:08.476Z,32.44
2019-06-26T20:04:37.668Z,32.40
2019-06-26T20:07:06.945Z,32.34
2019-06-26T20:09:36.197Z,32.30
2019-06-26T20:12:05.507Z,32.24
2019-06-26T20:14:35.393Z,32.21
2019-06-26T20:17:04.665Z,32.16
2019-06-26T20:19:33.984Z,32.13
2019-06-26T20:22:03.189Z,32.08
2019-06-26T20:24:43.453Z,32.04
2019-06-26T20:27:03.733Z,31.98
2019-06-26T20:29:32.966Z,31.93
2019-06-26T20:32:02.444Z,31.87
2019-06-26T20:34:31.735Z,31.86
2019-06-26T20:37:00.939Z,31.84
2019-06-26T20:39:30.184Z,31.81
2019-06-26T20:41:59.370Z,31.78
2019-06-26T20:44:28.617Z,31.71
2019-06-26T20:46:57.858Z,31.66
2019-06-26T20:49:27.126Z,31.60
2019-06-26T20:51:56.316Z,31.57
2019-06-26T20:54:25.557Z,31.54
2019-06-26T20:56:55.042Z,31.53
2019-06-26T20:59:24.367Z,31.48
2019-06-26T21:01:53.624Z,31.45
2019-06-26T21:04:22.921Z,31.43
2019-06-26T21:06:52.750Z,31.34
2019-06-26T21:09:21.955Z,31.28
2019-06-26T21:11:51.231Z,31.26
2019-06-26T21:14:20.424Z,31.24
2019-06-26T21:16:49.690Z,31.20
2019-06-26T21:19:18.877Z,31.15
2019-06-26T21:21:48.134Z,31.09
2019-06-26T21:24:17.339Z,31.02
2019-06-26T21:26:46.640Z,30.98
2019-06-26T21:29:15.837Z,30.95
2019-06-26T21:31:45.037Z,30.87
2019-06-26T21:34:14.283Z,30.83
2019-06-26T21:36:43.496Z,30.75
2019-06-26T21:39:12.729Z,30.69
2019-06-26T21:41:42.010Z,30.69
2019-06-26T21:44:11.205Z,30.66
2019-06-26T21:46:40.515Z,30.58
2019-06-26T21:49:09.702Z,30.47
2019-06-26T21:51:38.960Z,30.41
2019-06-26T21:54:08.146Z,30.36
2019-06-26T21:56:37.385Z,30.33
2019-06-26T21:59:06.576Z,30.32
2019-06-26T22:01:35.819Z,30.29
2019-06-26T22:04:05.299Z,30.23
2019-06-26T22:06:34.540Z,30.18
2019-06-26T22:09:05.330Z,30.14
2019-06-26T22:11:34.669Z,30.08
2019-06-26T22:14:03.936Z,30.01
2019-06-26T22:16:33.273Z,29.93
2019-06-26T22:19:02.465Z,29.90
2019-06-26T22:21:31.721Z,29.88
2019-06-26T22:24:00.922Z,29.89
2019-06-26T22:26:30.493Z,29.93
2019-06-26T22:29:00.043Z,29.89
2019-06-26T22:31:29.235Z,29.82
2019-06-26T22:33:58.577Z,29.74
2019-06-26T22:36:27.773Z,29.70
2019-06-26T22:38:57.024Z,29.68
2019-06-26T22:41:26.221Z,29.68
2019-06-26T22:43:55.472Z,29.69
2019-06-26T22:46:24.670Z,29.76
2019-06-26T22:48:53.986Z,29.82
2019-06-26T22:51:23.175Z,29.70
2019-06-26T22:53:52.434Z,29.55
2019-06-26T22:56:21.938Z,29.53
2019-06-26T22:58:51.208Z,29.45
2019-06-26T23:01:20.740Z,29.37
2019-06-26T23:03:49.986Z,29.36
2019-06-26T23:06:19.300Z,29.36
2019-06-26T23:08:48.578Z,29.33
2019-06-26T23:11:17.839Z,29.31
2019-06-26T23:13:47.173Z,29.36
2019-06-26T23:16:16.428Z,29.29
2019-06-26T23:18:45.630Z,29.18
2019-06-26T23:21:14.879Z,29.09
2019-06-26T23:23:44.143Z,28.94
2019-06-26T23:26:23.377Z,28.79
2019-06-26T23:28:44.411Z,28.67
2019-06-26T23:31:13.982Z,28.63
2019-06-26T23:33:43.558Z,28.55
2019-06-26T23:36:13.035Z,28.45
2019-06-26T23:38:42.299Z,28.43
2019-06-26T23:41:11.503Z,28.39
2019-06-26T23:43:41.048Z,28.34
2019-06-26T23:46:10.625Z,28.30
2019-06-26T23:48:39.878Z,28.32
2019-06-26T23:51:09.165Z,28.35
2019-06-26T23:53:38.702Z,28.34
2019-06-26T23:56:08.007Z,28.32
2019-06-26T23:58:37.340Z,28.31
